Time;durP1;ratioP1;P1;durP2;ratioP2;P2;SDS_P1;SDS_P2;PMS_P1;PMS_P2;Temp;Humidity;BMP_temperature;BMP_pressure;BME280_temperature;BME280_humidity;BME280_pressure;Samples;Min_cycle;Max_cycle;Signal;HPM_P1;HPM_P2
2020/12/07 00:01:09;;;;;;;31.35;18.67;;;8.70;80.00;;;;;;5023586;28;20403;-75
2020/12/07 00:03:35;;;;;;;33.67;18.80;;;8.70;80.00;;;;;;5006775;28;20034;-76
2020/12/07 00:06:00;;;;;;;36.35;19.23;;;8.70;79.90;;;;;;5011840;28;20069;-75
2020/12/07 00:08:26;;;;;;;32.45;19.05;;;8.80;79.90;;;;;;5028560;28;20739;-75
2020/12/07 00:10:51;;;;;;;33.38;20.25;;;8.70;79.80;;;;;;5029319;28;20033;-75
2020/12/07 00:13:17;;;;;;;29.17;18.95;;;8.80;79.80;;;;;;5028160;28;20049;-76
2020/12/07 00:15:44;;;;;;;31.08;18.02;;;8.70;79.60;;;;;;5025886;28;20052;-76
2020/12/07 00:18:09;;;;;;;29.38;17.42;;;8.70;79.90;;;;;;5012294;28;20382;-75
2020/12/07 00:20:35;;;;;;;28.98;16.75;;;8.70;80.00;;;;;;5010168;28;20124;-76
2020/12/07 00:23:01;;;;;;;30.75;17.98;;;8.80;79.90;;;;;;5012032;28;20030;-77
2020/12/07 00:25:26;;;;;;;35.72;19.17;;;8.80;79.70;;;;;;5027010;28;20033;-76
2020/12/07 00:27:52;;;;;;;34.13;20.23;;;8.80;79.50;;;;;;4973657;28;20040;-76
2020/12/07 00:30:18;;;;;;;31.95;19.02;;;8.80;79.60;;;;;;5028259;28;20075;-75
2020/12/07 00:32:44;;;;;;;35.30;19.70;;;8.80;79.60;;;;;;5028410;28;20191;-75
2020/12/07 00:35:09;;;;;;;29.33;18.27;;;8.80;79.60;;;;;;5028357;28;20475;-76
2020/12/07 00:37:35;;;;;;;32.38;19.13;;;8.80;79.60;;;;;;5011455;28;20040;-76
2020/12/07 00:40:00;;;;;;;31.02;19.15;;;8.90;79.50;;;;;;5010885;28;20038;-76
2020/12/07 00:42:26;;;;;;;32.95;18.55;;;8.90;79.50;;;;;;5029051;28;20065;-76
2020/12/07 00:44:52;;;;;;;30.67;16.88;;;8.80;79.40;;;;;;5028834;28;20045;-76
2020/12/07 00:47:17;;;;;;;29.88;17.67;;;8.80;79.70;;;;;;5027488;28;20509;-76
2020/12/07 00:49:43;;;;;;;28.60;15.68;;;8.80;79.80;;;;;;5010433;28;20040;-76
2020/12/07 00:52:09;;;;;;;31.00;17.02;;;8.80;79.80;;;;;;5012480;28;20041;-76
2020/12/07 00:54:35;;;;;;;34.45;18.65;;;8.90;79.80;;;;;;4990584;28;20045;-75
2020/12/07 00:57:02;;;;;;;32.67;17.52;;;8.90;79.80;;;;;;5021332;28;20045;-78
2020/12/07 00:59:29;;;;;;;26.65;15.93;;;8.90;79.80;;;;;;5011238;28;20026;-79
2020/12/07 01:01:56;;;;;;;28.42;16.40;;;8.90;79.70;;;;;;5010254;28;20022;-77
2020/12/07 01:04:23;;;;;;;27.02;16.30;;;9.00;79.70;;;;;;5026169;28;20038;-77
2020/12/07 01:06:48;;;;;;;29.70;16.77;;;9.00;79.50;;;;;;5028709;28;20108;-76
2020/12/07 01:09:19;;;;;;;28.92;16.35;;;9.00;79.40;;;;;;5029011;28;20641;-77
2020/12/07 01:11:45;;;;;;;33.90;19.48;;;9.10;79.30;;;;;;5028361;28;20029;-77
2020/12/07 01:14:12;;;;;;;30.33;17.80;;;9.10;79.30;;;;;;4997751;28;20029;-77
2020/12/07 01:16:38;;;;;;;27.95;15.85;;;9.10;79.20;;;;;;5029486;28;20076;-77
2020/12/07 01:19:05;;;;;;;33.17;18.45;;;9.10;79.10;;;;;;5029355;28;20097;-77
2020/12/07 01:21:32;;;;;;;26.75;16.05;;;9.10;79.00;;;;;;5006057;28;20029;-77
2020/12/07 01:23:59;;;;;;;31.33;17.55;;;9.10;78.90;;;;;;5023266;28;20041;-76
2020/12/07 01:26:24;;;;;;;31.70;19.35;;;9.10;79.00;;;;;;5013814;28;20029;-77
2020/12/07 01:28:50;;;;;;;29.65;17.65;;;9.10;79.10;;;;;;5002757;28;20045;-77
2020/12/07 01:31:17;;;;;;;29.20;18.13;;;9.00;79.20;;;;;;5022150;28;20041;-77
2020/12/07 01:33:43;;;;;;;29.05;17.23;;;9.00;79.40;;;;;;5009854;28;20080;-76
2020/12/07 01:36:09;;;;;;;26.88;15.20;;;9.00;79.40;;;;;;5029527;28;20034;-77
2020/12/07 01:38:35;;;;;;;28.23;16.98;;;9.10;79.40;;;;;;5014497;28;20038;-76
2020/12/07 01:41:00;;;;;;;26.52;16.10;;;9.10;79.30;;;;;;5025872;28;20566;-76
2020/12/07 01:43:26;;;;;;;29.38;16.95;;;9.10;79.10;;;;;;5021882;28;20041;-76
2020/12/07 01:45:51;;;;;;;31.52;18.20;;;9.10;79.20;;;;;;4986789;28;20372;-76
2020/12/07 01:48:17;;;;;;;29.60;17.45;;;9.00;79.30;;;;;;5014701;28;20451;-78
2020/12/07 01:50:43;;;;;;;29.98;19.05;;;8.90;79.60;;;;;;5033244;28;20584;-76
2020/12/07 01:53:10;;;;;;;26.02;15.82;;;8.80;79.90;;;;;;5014253;28;20556;-76
2020/12/07 01:55:40;;;;;;;27.27;16.20;;;8.90;80.00;;;;;;5001079;28;20109;-76
2020/12/07 01:58:06;;;;;;;29.85;18.10;;;8.90;79.70;;;;;;5013965;28;20463;-76
2020/12/07 02:00:31;;;;;;;29.45;16.67;;;9.00;79.50;;;;;;5032622;28;20096;-77
2020/12/07 02:02:57;;;;;;;28.20;16.55;;;9.00;79.60;;;;;;5032794;28;20061;-77
2020/12/07 02:05:24;;;;;;;26.75;16.23;;;8.90;79.60;;;;;;5032425;28;20034;-77
2020/12/07 02:08:08;;;;;;;29.40;16.83;;;9.00;79.60;;;;;;5014608;28;20080;-76
2020/12/07 02:10:33;;;;;;;29.83;17.15;;;9.10;79.20;;;;;;5029230;28;20033;-77
2020/12/07 02:12:59;;;;;;;30.80;17.02;;;9.00;79.20;;;;;;5032293;28;20071;-77
2020/12/07 02:15:24;;;;;;;29.38;17.35;;;9.10;79.30;;;;;;4967025;28;20120;-76
2020/12/07 02:17:50;;;;;;;33.20;20.00;;;9.00;79.20;;;;;;5007632;28;20447;-76
2020/12/07 02:20:16;;;;;;;31.13;18.70;;;9.00;79.10;;;;;;5013809;28;20443;-76
2020/12/07 02:22:41;;;;;;;33.45;20.45;;;9.00;79.10;;;;;;5006203;28;20368;-76
2020/12/07 02:25:07;;;;;;;32.67;20.05;;;9.00;79.00;;;;;;5026248;28;20038;-76
2020/12/07 02:27:33;;;;;;;36.05;21.73;;;9.00;78.90;;;;;;5004024;28;20076;-76
2020/12/07 02:29:58;;;;;;;36.45;22.88;;;8.90;79.20;;;;;;5032254;28;20133;-76
2020/12/07 02:32:25;;;;;;;33.50;19.88;;;8.80;79.30;;;;;;5007773;28;20108;-76
2020/12/07 02:34:50;;;;;;;32.55;21.30;;;8.90;79.40;;;;;;4996084;28;20030;-76
2020/12/07 02:37:16;;;;;;;35.20;18.75;;;8.80;79.30;;;;;;5031317;28;20341;-77
2020/12/07 02:39:42;;;;;;;39.88;21.23;;;8.90;79.20;;;;;;5013087;28;20029;-76
2020/12/07 02:42:07;;;;;;;29.50;19.13;;;8.90;79.20;;;;;;5014007;28;20048;-77
2020/12/07 02:44:33;;;;;;;29.00;18.58;;;8.90;79.10;;;;;;5030310;28;20037;-76
2020/12/07 02:46:59;;;;;;;31.40;18.88;;;9.00;79.00;;;;;;5022924;28;20241;-77
2020/12/07 02:49:27;;;;;;;30.23;18.67;;;9.00;79.00;;;;;;5030943;28;20072;-76
2020/12/07 02:51:53;;;;;;;31.60;17.27;;;8.90;79.10;;;;;;5031420;28;20355;-77
2020/12/07 02:54:19;;;;;;;30.88;18.65;;;8.80;79.40;;;;;;4993742;28;20034;-76
2020/12/07 02:56:45;;;;;;;29.08;16.88;;;8.70;79.70;;;;;;5029389;28;20803;-79
2020/12/07 02:59:10;;;;;;;28.88;18.80;;;8.70;79.90;;;;;;5013113;28;20163;-78
2020/12/07 03:01:36;;;;;;;28.00;17.15;;;8.80;79.90;;;;;;5009291;28;20045;-76
2020/12/07 03:04:01;;;;;;;31.23;19.17;;;8.80;79.90;;;;;;5017077;28;20091;-77
2020/12/07 03:06:27;;;;;;;29.42;18.55;;;8.70;79.90;;;;;;4997724;28;20478;-77
2020/12/07 03:08:54;;;;;;;29.15;18.02;;;8.70;80.10;;;;;;5004273;28;20028;-77
2020/12/07 03:11:21;;;;;;;30.42;19.20;;;8.60;80.40;;;;;;5012757;28;20056;-77
2020/12/07 03:13:47;;;;;;;29.00;19.60;;;8.60;80.50;;;;;;5013596;28;20131;-78
2020/12/07 03:16:13;;;;;;;31.40;19.52;;;8.60;80.50;;;;;;5030519;28;20507;-77
2020/12/07 03:18:38;;;;;;;32.85;19.77;;;8.60;80.60;;;;;;4992461;28;20033;-77
2020/12/07 03:21:04;;;;;;;35.38;20.38;;;8.60;80.50;;;;;;5029271;28;20105;-77
2020/12/07 03:23:29;;;;;;;30.35;18.42;;;8.70;80.30;;;;;;5011635;28;20064;-77
2020/12/07 03:25:55;;;;;;;28.10;17.58;;;8.80;80.20;;;;;;5031114;28;20334;-75
2020/12/07 03:28:20;;;;;;;34.15;19.23;;;8.80;79.90;;;;;;5009138;28;20037;-77
2020/12/07 03:30:46;;;;;;;32.63;19.08;;;8.80;79.80;;;;;;5030577;28;20042;-77
2020/12/07 03:33:12;;;;;;;30.23;19.40;;;8.80;79.90;;;;;;5030899;28;20458;-77
2020/12/07 03:35:37;;;;;;;32.60;18.67;;;8.80;80.10;;;;;;4999272;28;20057;-77
2020/12/07 03:38:03;;;;;;;29.48;17.27;;;8.80;80.00;;;;;;5013257;28;20124;-77
2020/12/07 03:40:32;;;;;;;29.13;17.95;;;8.80;79.90;;;;;;5030428;28;20563;-77
2020/12/07 03:42:58;;;;;;;32.40;18.27;;;8.90;79.90;;;;;;5012556;28;20179;-77
2020/12/07 03:45:24;;;;;;;30.08;17.85;;;8.90;79.80;;;;;;4995128;28;20110;-77
2020/12/07 03:47:49;;;;;;;29.85;17.08;;;9.00;79.70;;;;;;5010536;28;20502;-77
2020/12/07 03:50:15;;;;;;;31.52;17.55;;;9.00;79.70;;;;;;5030733;28;20025;-77
2020/12/07 03:52:41;;;;;;;33.60;20.35;;;9.00;79.70;;;;;;5007019;28;20038;-77
2020/12/07 03:55:06;;;;;;;32.00;19.95;;;9.00;79.80;;;;;;5028745;28;20064;-77
2020/12/07 03:57:32;;;;;;;30.73;20.75;;;8.90;79.90;;;;;;5029902;28;20060;-77
2020/12/07 03:59:57;;;;;;;27.95;17.33;;;8.90;80.10;;;;;;4996191;28;20486;-77
2020/12/07 04:02:23;;;;;;;29.85;18.33;;;9.00;80.10;;;;;;5027977;28;20039;-77
2020/12/07 04:07:14;;;;;;;30.05;18.83;;;9.00;79.80;;;;;;5030911;28;20038;-77
2020/12/07 04:09:40;;;;;;;31.85;20.55;;;9.10;79.60;;;;;;5025812;28;20033;-76
2020/12/07 04:12:05;;;;;;;32.97;21.70;;;9.20;79.20;;;;;;5012997;28;20060;-77
2020/12/07 04:14:31;;;;;;;31.42;19.30;;;9.30;79.00;;;;;;5027124;28;20109;-77
2020/12/07 04:16:56;;;;;;;32.13;21.45;;;9.30;78.70;;;;;;5008102;28;20041;-76
2020/12/07 04:19:22;;;;;;;31.60;19.88;;;9.40;78.40;;;;;;5025216;28;20064;-76
2020/12/07 04:21:48;;;;;;;32.22;20.38;;;9.40;78.30;;;;;;5029472;28;20038;-77
2020/12/07 04:24:13;;;;;;;31.25;18.77;;;9.40;78.50;;;;;;5011852;28;20038;-78
2020/12/07 04:26:39;;;;;;;31.50;19.60;;;9.30;78.60;;;;;;4984610;28;20042;-78
2020/12/07 04:29:05;;;;;;;35.55;20.85;;;9.30;78.40;;;;;;4993589;28;20391;-77
2020/12/07 04:31:30;;;;;;;30.88;21.23;;;9.40;78.30;;;;;;5018482;28;20042;-78
2020/12/07 04:33:56;;;;;;;33.80;22.40;;;9.40;78.20;;;;;;5002371;28;20478;-77
2020/12/07 04:36:22;;;;;;;33.47;20.55;;;9.30;78.20;;;;;;5029187;28;20033;-77
2020/12/07 04:38:47;;;;;;;30.00;19.25;;;9.30;78.50;;;;;;5028550;28;20034;-77
2020/12/07 04:41:13;;;;;;;33.33;19.33;;;9.20;78.70;;;;;;5012499;28;20036;-77
2020/12/07 04:43:40;;;;;;;33.40;20.90;;;9.10;78.90;;;;;;5005656;28;20095;-77
2020/12/07 04:46:05;;;;;;;30.08;20.08;;;9.10;79.10;;;;;;5013587;28;20030;-77
2020/12/07 04:48:34;;;;;;;33.17;19.67;;;9.00;79.30;;;;;;5014171;28;20029;-77
2020/12/07 04:51:00;;;;;;;28.77;18.05;;;9.00;79.30;;;;;;5010011;28;20057;-77
2020/12/07 04:53:27;;;;;;;29.77;18.98;;;8.90;79.40;;;;;;5010127;28;20037;-77
2020/12/07 04:55:57;;;;;;;29.45;19.20;;;8.90;79.50;;;;;;5026897;28;20034;-78
2020/12/07 04:58:24;;;;;;;30.58;19.38;;;8.90;79.60;;;;;;5021508;28;20056;-77
2020/12/07 05:00:50;;;;;;;28.15;18.42;;;8.90;79.60;;;;;;5007041;28;20038;-77
2020/12/07 05:03:15;;;;;;;30.70;20.00;;;8.90;79.60;;;;;;5022422;28;20470;-77
2020/12/07 05:05:41;;;;;;;29.38;19.40;;;8.90;79.80;;;;;;5010795;28;20331;-77
2020/12/07 05:08:07;;;;;;;34.05;19.73;;;8.90;79.80;;;;;;5012465;28;20040;-77
2020/12/07 05:10:39;;;;;;;29.10;20.05;;;8.90;79.90;;;;;;5009670;28;20039;-77
2020/12/07 05:13:15;;;;;;;27.25;17.90;;;8.90;79.90;;;;;;5026931;28;20061;-77
2020/12/07 05:15:41;;;;;;;30.85;19.60;;;8.90;79.90;;;;;;5027735;28;20091;-78
2020/12/07 05:18:07;;;;;;;29.73;18.23;;;8.90;79.90;;;;;;4985991;28;20030;-77
2020/12/07 05:20:33;;;;;;;27.95;18.23;;;8.90;80.10;;;;;;5025116;28;20360;-78
2020/12/07 05:23:00;;;;;;;29.10;18.90;;;8.90;80.20;;;;;;5011832;28;20072;-77
2020/12/07 05:25:26;;;;;;;27.27;18.80;;;8.90;80.10;;;;;;5028197;28;20025;-78
2020/12/07 05:27:53;;;;;;;29.92;20.27;;;8.90;80.00;;;;;;5011853;28;20448;-77
2020/12/07 05:32:46;;;;;;;29.17;18.90;;;9.00;80.00;;;;;;5028082;28;20056;-77
2020/12/07 05:35:12;;;;;;;36.03;21.67;;;8.90;79.90;;;;;;5026825;28;20546;-77
2020/12/07 05:37:38;;;;;;;30.77;20.50;;;8.90;80.10;;;;;;5020741;28;20037;-77
2020/12/07 05:40:10;;;;;;;29.20;19.52;;;8.80;80.20;;;;;;5010268;28;20080;-77
2020/12/07 05:42:36;;;;;;;29.42;19.17;;;8.80;80.50;;;;;;5009322;28;20037;-78
2020/12/07 05:45:04;;;;;;;30.63;20.38;;;8.90;80.20;;;;;;5029418;28;20046;-79
2020/12/07 05:47:37;;;;;;;33.22;20.10;;;9.00;80.10;;;;;;5027221;28;20021;-79
2020/12/07 05:50:04;;;;;;;31.60;19.70;;;9.00;79.90;;;;;;5029666;28;20398;-79
2020/12/07 05:52:48;;;;;;;28.92;19.60;;;9.10;79.80;;;;;;5028987;28;20029;-79
2020/12/07 05:55:20;;;;;;;32.83;20.73;;;9.00;79.70;;;;;;5005844;28;20021;-78
2020/12/07 05:58:08;;;;;;;30.70;20.83;;;9.00;79.90;;;;;;5012391;28;20026;-78
2020/12/07 06:00:36;;;;;;;33.28;20.83;;;9.10;79.90;;;;;;5017299;28;20103;-79
2020/12/07 06:03:04;;;;;;;33.03;21.98;;;9.10;79.70;;;;;;5031075;28;20030;-78
2020/12/07 06:05:30;;;;;;;32.67;22.15;;;9.20;79.50;;;;;;5026904;28;20124;-78
2020/12/07 06:08:06;;;;;;;30.42;20.40;;;9.20;79.30;;;;;;5021598;28;20120;-77
2020/12/07 06:10:38;;;;;;;33.83;23.15;;;9.20;79.20;;;;;;5027070;28;20026;-78
2020/12/07 06:13:10;;;;;;;36.88;23.63;;;9.30;79.00;;;;;;5030879;28;20077;-78
2020/12/07 06:15:35;;;;;;;31.95;20.98;;;9.30;78.90;;;;;;5015520;28;20033;-78
2020/12/07 06:18:04;;;;;;;29.55;20.45;;;9.40;78.80;;;;;;5014719;28;20099;-77
2020/12/07 06:20:36;;;;;;;32.95;21.38;;;9.40;78.50;;;;;;5032626;28;20030;-77
2020/12/07 06:23:02;;;;;;;34.45;22.52;;;9.50;78.40;;;;;;5033353;28;20129;-79
2020/12/07 06:25:32;;;;;;;34.13;22.05;;;9.40;78.50;;;;;;5029778;28;20116;-78
2020/12/07 06:28:00;;;;;;;31.02;20.20;;;9.40;78.60;;;;;;5014452;28;20375;-78
2020/12/07 06:30:37;;;;;;;32.65;21.48;;;9.30;78.60;;;;;;5029477;28;20026;-78
2020/12/07 06:33:09;;;;;;;28.98;18.40;;;9.30;78.70;;;;;;5032444;28;20084;-72
2020/12/07 06:35:46;;;;;;;29.60;19.23;;;9.30;78.80;;;;;;5013186;28;20025;-75
2020/12/07 06:38:12;;;;;;;31.50;19.98;;;9.30;78.90;;;;;;5031826;28;20119;-74
2020/12/07 06:40:38;;;;;;;28.23;17.95;;;9.20;79.10;;;;;;5031631;28;20217;-75
2020/12/07 06:43:21;;;;;;;30.42;19.73;;;9.20;79.20;;;;;;5032622;28;20074;-74
2020/12/07 06:45:47;;;;;;;28.27;18.80;;;9.20;79.40;;;;;;5032367;28;20486;-74
2020/12/07 06:48:16;;;;;;;28.75;19.15;;;9.20;79.50;;;;;;5031270;28;20105;-74
2020/12/07 06:50:44;;;;;;;26.80;19.20;;;9.20;79.60;;;;;;5014195;28;20116;-74
2020/12/07 06:53:41;;;;;;;29.63;19.52;;;9.20;79.50;;;;;;5031982;28;20037;-73
2020/12/07 06:56:08;;;;;;;30.90;19.52;;;9.20;79.50;;;;;;5030759;28;20125;-73
2020/12/07 06:58:37;;;;;;;33.28;21.13;;;9.20;79.50;;;;;;5028960;28;20041;-76
2020/12/07 07:01:15;;;;;;;30.30;19.38;;;9.20;79.60;;;;;;5027905;28;20017;-73
2020/12/07 07:03:51;;;;;;;34.13;20.73;;;9.20;79.60;;;;;;5025320;28;20187;-75
2020/12/07 07:06:21;;;;;;;29.35;20.80;;;9.20;79.70;;;;;;5030073;28;20581;-73
2020/12/07 07:08:53;;;;;;;30.92;20.40;;;9.20;79.60;;;;;;5022597;28;20376;-72
2020/12/07 07:11:19;;;;;;;34.55;21.17;;;9.30;79.50;;;;;;5020857;28;20033;-72
2020/12/07 07:13:47;;;;;;;32.97;20.25;;;9.30;79.50;;;;;;5026101;28;20068;-73
2020/12/07 07:16:14;;;;;;;31.55;21.08;;;9.30;79.50;;;;;;5028436;28;20621;-76
2020/12/07 07:18:42;;;;;;;31.25;19.95;;;9.30;79.50;;;;;;5006488;28;20384;-75
2020/12/07 07:21:07;;;;;;;35.80;20.95;;;9.30;79.60;;;;;;5025438;28;20113;-76
2020/12/07 07:23:40;;;;;;;31.23;19.83;;;9.30;79.50;;;;;;5027485;28;20124;-76
2020/12/07 07:26:29;;;;;;;35.75;20.45;;;9.30;79.30;;;;;;5029859;28;20032;-74
2020/12/07 07:28:55;;;;;;;29.88;18.33;;;9.40;79.10;;;;;;5022301;28;20128;-73
2020/12/07 07:31:22;;;;;;;32.67;20.55;;;9.50;79.00;;;;;;5025648;28;20168;-74
2020/12/07 07:33:48;;;;;;;31.63;19.58;;;9.40;78.90;;;;;;5020511;28;20041;-74
2020/12/07 07:36:24;;;;;;;29.20;17.65;;;9.40;78.90;;;;;;4989843;28;20115;-74
2020/12/07 07:38:53;;;;;;;31.35;18.52;;;9.40;78.90;;;;;;5030395;28;20132;-77
2020/12/07 07:41:29;;;;;;;33.70;18.60;;;9.40;79.00;;;;;;5026453;28;20030;-75
2020/12/07 07:43:55;;;;;;;30.85;18.00;;;9.40;79.20;;;;;;5010515;28;20033;-74
2020/12/07 07:46:21;;;;;;;25.95;17.23;;;9.40;79.10;;;;;;5038706;28;20033;-77
2020/12/07 08:16:54;;;;;;;25.05;17.98;;;9.20;79.40;;;;;;5026770;28;20041;-77
2020/12/07 08:19:25;;;;;;;28.80;18.65;;;9.20;79.40;;;;;;5025762;28;20037;-73
2020/12/07 08:21:51;;;;;;;23.80;16.80;;;9.30;79.40;;;;;;5030520;28;20128;-77
2020/12/07 08:24:17;;;;;;;26.23;17.27;;;9.40;79.10;;;;;;5032325;28;20091;-75
2020/12/07 08:26:43;;;;;;;26.70;16.85;;;9.40;78.90;;;;;;5028196;28;20060;-77
2020/12/07 08:29:10;;;;;;;26.10;17.65;;;9.50;78.70;;;;;;5022999;28;20041;-73
2020/12/07 08:31:36;;;;;;;28.02;19.35;;;9.50;78.30;;;;;;5026935;28;20033;-77
2020/12/07 08:34:14;;;;;;;25.30;18.58;;;9.50;78.20;;;;;;5022448;28;20067;-75
2020/12/07 08:36:45;;;;;;;30.58;19.10;;;9.60;78.20;;;;;;5029428;28;20108;-75
2020/12/07 08:39:11;;;;;;;27.35;19.10;;;9.60;78.10;;;;;;5026603;28;20065;-78
2020/12/07 08:41:37;;;;;;;25.92;18.33;;;9.60;78.10;;;;;;5025509;28;20449;-73
2020/12/07 08:44:08;;;;;;;23.85;16.13;;;9.50;78.20;;;;;;5027555;28;20037;-77
2020/12/07 08:46:36;;;;;;;27.23;18.63;;;9.50;78.30;;;;;;5029126;28;20044;-80
2020/12/07 08:49:03;;;;;;;25.42;17.52;;;9.40;78.40;;;;;;5026213;28;20116;-79
2020/12/07 08:51:32;;;;;;;27.08;19.88;;;9.30;78.70;;;;;;5024716;28;20141;-76
2020/12/07 08:53:58;;;;;;;26.15;17.90;;;9.30;78.90;;;;;;5023446;28;20088;-76
2020/12/07 08:56:23;;;;;;;24.27;17.70;;;9.30;78.90;;;;;;5024482;28;20033;-74
2020/12/07 08:58:49;;;;;;;26.60;17.63;;;9.40;78.70;;;;;;5018075;28;20037;-74
2020/12/07 09:01:15;;;;;;;24.73;17.20;;;9.40;78.50;;;;;;5020645;28;20038;-76
2020/12/07 09:03:42;;;;;;;26.02;17.60;;;9.40;78.40;;;;;;5026095;28;20375;-76
2020/12/07 09:06:12;;;;;;;25.35;16.75;;;9.40;78.40;;;;;;5027830;28;20052;-76
2020/12/07 09:08:40;;;;;;;26.10;16.90;;;9.40;78.40;;;;;;5023787;28;20032;-76
2020/12/07 09:11:06;;;;;;;25.65;17.63;;;9.40;78.40;;;;;;5024055;28;20095;-71
2020/12/07 09:13:34;;;;;;;29.25;17.30;;;9.30;78.50;;;;;;5026682;28;20042;-70
2020/12/07 09:16:00;;;;;;;27.85;19.35;;;9.30;78.70;;;;;;5006074;28;20041;-77
2020/12/07 09:18:27;;;;;;;25.33;18.20;;;9.30;78.80;;;;;;5023469;28;20029;-80
2020/12/07 09:20:53;;;;;;;26.90;19.33;;;9.30;78.70;;;;;;5020890;28;20486;-78
2020/12/07 09:23:19;;;;;;;26.90;19.20;;;9.30;78.70;;;;;;5018518;28;20037;-80
2020/12/07 09:25:45;;;;;;;28.52;19.10;;;9.40;78.50;;;;;;5005389;28;20042;-80
2020/12/07 09:28:11;;;;;;;28.63;19.17;;;9.40;78.30;;;;;;5003804;28;20021;-77
2020/12/07 09:30:38;;;;;;;27.10;19.30;;;9.60;78.50;;;;;;5006396;28;20029;-80
2020/12/07 09:33:04;;;;;;;29.00;19.50;;;9.20;78.60;;;;;;5025813;28;20506;-77
2020/12/07 09:35:30;;;;;;;29.67;19.17;;;9.30;78.70;;;;;;5025799;28;20056;-78
2020/12/07 09:37:56;;;;;;;28.65;19.15;;;9.20;78.50;;;;;;5027816;28;20061;-77
2020/12/07 09:40:21;;;;;;;32.58;20.38;;;9.30;78.50;;;;;;5006136;28;20043;-72
2020/12/07 09:42:47;;;;;;;30.98;20.98;;;9.30;78.40;;;;;;5007463;28;20566;-71
2020/12/07 09:45:13;;;;;;;27.58;19.67;;;9.30;78.20;;;;;;5023787;28;20188;-78
2020/12/07 09:47:38;;;;;;;27.10;18.85;;;9.30;78.20;;;;;;5028433;28;20040;-76
2020/12/07 09:50:06;;;;;;;28.52;20.33;;;9.30;78.20;;;;;;5025412;28;20632;-79
2020/12/07 09:52:32;;;;;;;25.27;18.35;;;9.40;78.00;;;;;;5027866;28;20509;-72
2020/12/07 09:54:57;;;;;;;29.52;20.42;;;9.40;77.80;;;;;;5031112;28;20061;-72
2020/12/07 09:57:23;;;;;;;27.05;19.00;;;9.40;77.80;;;;;;5030761;28;20118;-74
2020/12/07 09:59:50;;;;;;;29.58;21.48;;;9.30;77.90;;;;;;5029162;28;20909;-76
2020/12/07 10:02:16;;;;;;;29.17;19.80;;;8.60;77.40;;;;;;5029223;28;20117;-76
2020/12/07 10:04:42;;;;;;;30.75;18.75;;;9.30;77.80;;;;;;5013631;28;20038;-78
2020/12/07 10:07:08;;;;;;;29.02;19.42;;;9.20;77.90;;;;;;5025042;28;20127;-74
2020/12/07 10:09:34;;;;;;;30.67;19.92;;;9.20;78.10;;;;;;5027118;28;20489;-77
2020/12/07 10:12:00;;;;;;;30.85;19.85;;;9.20;78.30;;;;;;4994726;28;20060;-71
2020/12/07 10:14:26;;;;;;;31.45;20.42;;;9.20;78.40;;;;;;5007028;28;20145;-70
2020/12/07 10:16:51;;;;;;;26.38;18.77;;;9.20;78.40;;;;;;4989108;28;20125;-70
2020/12/07 10:19:17;;;;;;;34.58;22.10;;;9.30;78.20;;;;;;5009039;28;20187;-70
2020/12/07 10:21:43;;;;;;;33.72;23.33;;;9.30;77.90;;;;;;5003830;28;20049;-70
2020/12/07 10:24:08;;;;;;;32.13;21.35;;;9.40;77.70;;;;;;5022631;28;20033;-70
2020/12/07 10:26:34;;;;;;;34.38;23.00;;;9.40;77.50;;;;;;4990676;28;20053;-77
2020/12/07 10:29:00;;;;;;;29.85;20.73;;;9.40;77.60;;;;;;5005258;28;20042;-76
2020/12/07 10:31:26;;;;;;;30.45;20.70;;;9.40;77.60;;;;;;4988093;28;20029;-77
2020/12/07 10:33:52;;;;;;;32.55;21.95;;;9.40;77.60;;;;;;5025579;28;20471;-75
2020/12/07 10:36:19;;;;;;;30.00;20.85;;;9.30;77.50;;;;;;5025281;28;20061;-77
2020/12/07 10:38:46;;;;;;;32.88;23.00;;;9.40;77.40;;;;;;5023306;28;20096;-76
2020/12/07 10:41:13;;;;;;;32.35;21.17;;;9.40;77.40;;;;;;5005955;28;20071;-73
2020/12/07 10:43:40;;;;;;;31.13;21.35;;;9.40;77.30;;;;;;5021985;28;20076;-76
2020/12/07 10:46:06;;;;;;;32.30;22.05;;;9.40;77.30;;;;;;5023713;28;20041;-76
2020/12/07 10:48:32;;;;;;;35.85;23.50;;;9.40;77.30;;;;;;5004471;28;20041;-74
2020/12/07 10:50:58;;;;;;;33.13;23.10;;;9.50;77.30;;;;;;5025622;28;20117;-75
2020/12/07 10:53:24;;;;;;;33.80;22.80;;;9.50;77.10;;;;;;5027601;28;20160;-79
2020/12/07 10:55:50;;;;;;;37.22;24.77;;;9.40;77.10;;;;;;5030839;28;20041;-80
2020/12/07 10:58:16;;;;;;;33.40;23.88;;;9.30;77.20;;;;;;5003672;28;20048;-77
2020/12/07 11:00:42;;;;;;;33.28;23.13;;;9.30;77.50;;;;;;5021747;28;20061;-78
2020/12/07 11:03:08;;;;;;;37.60;23.95;;;9.40;77.50;;;;;;5002987;28;20113;-76
2020/12/07 11:05:34;;;;;;;39.35;25.80;;;9.40;77.00;;;;;;5003659;28;20033;-80
2020/12/07 11:08:01;;;;;;;38.85;25.40;;;9.40;76.90;;;;;;5004196;28;20034;-77
2020/12/07 11:10:26;;;;;;;37.72;24.67;;;9.50;76.90;;;;;;5026909;28;20021;-79
2020/12/07 11:12:59;;;;;;;37.50;25.45;;;9.40;76.80;;;;;;5023156;28;20057;-78
2020/12/07 11:15:26;;;;;;;43.03;26.75;;;9.40;76.80;;;;;;5027515;28;20029;-76
2020/12/07 11:17:52;;;;;;;41.22;28.23;;;9.40;76.80;;;;;;5006370;28;20037;-79
2020/12/07 11:20:17;;;;;;;44.15;28.42;;;9.00;76.50;;;;;;5009154;28;20044;-76
2020/12/07 11:22:43;;;;;;;41.58;26.25;;;9.40;76.40;;;;;;5005439;28;20037;-79
2020/12/07 11:25:08;;;;;;;45.25;28.63;;;9.40;76.40;;;;;;5024015;28;20038;-79
2020/12/07 11:27:34;;;;;;;45.70;28.55;;;9.40;75.80;;;;;;5022688;28;20561;-77
2020/12/07 11:30:00;;;;;;;44.35;27.48;;;9.30;75.90;;;;;;5026132;28;20096;-81
2020/12/07 11:32:25;;;;;;;43.90;27.58;;;9.30;75.90;;;;;;5021541;28;20090;-74
2020/12/07 11:34:51;;;;;;;52.63;29.90;;;9.40;75.80;;;;;;5022405;28;20779;-74
2020/12/07 11:37:16;;;;;;;48.88;28.55;;;9.40;75.80;;;;;;5000863;28;20037;-70
2020/12/07 11:42:24;;;;;;;47.35;28.17;;;9.30;76.30;;;;;;5022896;28;20049;-71
2020/12/07 11:44:49;;;;;;;46.10;26.67;;;9.30;76.40;;;;;;5026894;28;20131;-72
2020/12/07 11:47:15;;;;;;;45.90;30.58;;;9.30;76.30;;;;;;5004561;28;20132;-74
2020/12/07 11:49:42;;;;;;;48.00;27.77;;;9.30;76.10;;;;;;5027179;28;20052;-76
2020/12/07 11:52:07;;;;;;;45.20;26.95;;;9.30;76.00;;;;;;5022449;28;20056;-77
2020/12/07 11:54:35;;;;;;;46.35;27.75;;;9.30;75.80;;;;;;5008342;28;20025;-75
2020/12/07 11:57:05;;;;;;;52.60;30.77;;;9.40;76.00;;;;;;5019034;28;20072;-75
2020/12/07 11:59:31;;;;;;;48.13;28.52;;;9.50;75.70;;;;;;5023794;28;20080;-74
2020/12/07 12:01:56;;;;;;;43.67;29.00;;;9.50;75.40;;;;;;5022694;28;20378;-73
2020/12/07 12:04:22;;;;;;;47.25;27.85;;;9.50;75.50;;;;;;5005397;28;20068;-73
2020/12/07 12:06:48;;;;;;;46.80;26.30;;;9.50;75.70;;;;;;5018744;28;20065;-75
2020/12/07 12:09:14;;;;;;;45.92;27.00;;;9.50;75.90;;;;;;5001375;28;20152;-77
2020/12/07 12:11:43;;;;;;;44.60;26.73;;;9.60;75.80;;;;;;5019885;28;20141;-80
2020/12/07 12:14:09;;;;;;;42.58;26.20;;;9.60;75.40;;;;;;5021315;28;20117;-79
2020/12/07 12:16:35;;;;;;;42.13;25.35;;;9.60;74.90;;;;;;5009684;28;20514;-79
2020/12/07 12:19:03;;;;;;;42.00;24.30;;;9.60;75.10;;;;;;5022799;28;20129;-76
2020/12/07 12:21:29;;;;;;;39.13;23.13;;;9.60;75.10;;;;;;5021445;28;20057;-82
2020/12/07 12:24:01;;;;;;;41.10;24.33;;;9.60;75.20;;;;;;5024446;28;20435;-80
2020/12/07 12:26:27;;;;;;;35.83;20.73;;;9.60;75.20;;;;;;5002924;28;20042;-73
2020/12/07 12:28:52;;;;;;;35.75;21.00;;;9.60;75.20;;;;;;5023530;28;20052;-76
2020/12/07 12:31:18;;;;;;;35.15;21.88;;;9.60;75.10;;;;;;5022032;28;20391;-77
2020/12/07 12:33:44;;;;;;;38.25;22.90;;;9.70;75.10;;;;;;5020209;28;20049;-75
2020/12/07 12:36:17;;;;;;;48.08;21.95;;;9.60;75.00;;;;;;5022233;28;20037;-77
2020/12/07 12:38:43;;;;;;;40.13;22.95;;;9.70;75.00;;;;;;5019869;28;20460;-74
2020/12/07 12:41:10;;;;;;;34.75;20.73;;;9.70;74.90;;;;;;5022706;28;20113;-74
2020/12/07 12:43:36;;;;;;;34.00;20.58;;;9.60;75.00;;;;;;5019557;28;20140;-76
2020/12/07 12:46:03;;;;;;;36.00;21.20;;;9.50;75.10;;;;;;5017731;28;20094;-78
2020/12/07 12:48:29;;;;;;;33.97;20.58;;;9.40;75.10;;;;;;5019537;28;20033;-78
2020/12/07 12:50:54;;;;;;;32.13;21.42;;;9.30;75.80;;;;;;5020867;28;20046;-76
2020/12/07 12:53:23;;;;;;;35.47;20.00;;;9.30;75.70;;;;;;5014817;28;20041;-75
2020/12/07 12:55:48;;;;;;;34.13;19.98;;;9.30;75.80;;;;;;5019650;28;20116;-76
2020/12/07 12:58:14;;;;;;;29.98;17.80;;;9.20;75.80;;;;;;5024154;28;20120;-76
2020/12/07 13:00:40;;;;;;;33.42;19.65;;;9.20;76.00;;;;;;4969669;28;20030;-74
2020/12/07 13:03:05;;;;;;;34.67;21.10;;;9.20;76.00;;;;;;5017496;28;20475;-75
2020/12/07 13:05:31;;;;;;;30.55;17.40;;;9.10;76.50;;;;;;5022019;28;20044;-76
2020/12/07 13:07:57;;;;;;;30.80;19.33;;;9.20;75.90;;;;;;5019587;28;20057;-74
2020/12/07 13:10:22;;;;;;;32.63;18.25;;;9.20;75.80;;;;;;5020759;28;20160;-74